Time;durP1;ratioP1;P1;durP2;ratioP2;P2;SDS_P1;SDS_P2;PMS_P1;PMS_P2;Temp;Humidity;BMP_temperature;BMP_pressure;BME280_temperature;BME280_humidity;BME280_pressure;Samples;Min_cycle;Max_cycle;Signal;HPM_P1;HPM_P2
2022/10/06 00:00:27;;;;;;;;;;;;;;;11.51;100.00;101767.81;5045714;28;20348;-73
2022/10/06 00:02:53;;;;;;;;;;;;;;;11.52;100.00;101766.06;5044123;28;20322;-74
2022/10/06 00:05:18;;;;;;;;;;;;;;;11.52;100.00;101772.25;5048020;28;20411;-74
2022/10/06 00:07:44;;;;;;;;;;;;;;;11.50;100.00;101784.66;5047034;28;20030;-74
2022/10/06 00:10:09;;;;;;;;;;;;;;;11.49;100.00;101793.53;5046477;28;19925;-74
2022/10/06 00:12:44;;;;;;;;;;;;;;;11.51;100.00;101789.03;5047814;28;19927;-73
2022/10/06 00:15:10;;;;;;;;;;;;;;;11.52;100.00;101795.22;5045757;28;19924;-73
2022/10/06 00:17:36;;;;;;;;;;;;;;;11.54;100.00;101804.88;5078508;28;20367;-74
2022/10/06 00:20:02;;;;;;;;;;;;;;;11.53;100.00;101815.50;5045678;28;19940;-74
2022/10/06 00:22:37;;;;;;;;;;;;;;;11.50;100.00;101815.63;5047447;28;19955;-73
2022/10/06 00:25:03;;;;;;;;;;;;;;;11.46;100.00;101816.66;5079525;28;19933;-73
2022/10/06 00:27:36;;;;;;;;;;;;;;;11.44;100.00;101832.59;5046240;28;20024;-74
2022/10/06 00:30:04;;;;;;;;;;;;;;;11.45;100.00;101825.53;5047651;28;19928;-74
2022/10/06 00:32:30;;;;;;;;;;;;;;;11.43;100.00;101820.25;5047908;28;20307;-74
2022/10/06 00:34:58;;;;;;;;;;;;;;;11.40;100.00;101833.63;5045731;28;19933;-74
2022/10/06 00:37:24;;;;;;;;;;;;;;;11.40;100.00;101846.91;5038394;28;19959;-74
2022/10/06 00:39:49;;;;;;;;;;;;;;;11.38;100.00;101852.25;5047835;28;20042;-73
2022/10/06 00:42:21;;;;;;;;;;;;;;;11.38;100.00;101854.88;5036869;28;19932;-73
2022/10/06 00:44:47;;;;;;;;;;;;;;;11.37;100.00;101857.59;5045430;28;19929;-73
2022/10/06 00:47:13;;;;;;;;;;;;;;;11.36;100.00;101861.16;5046252;28;19932;-73
2022/10/06 00:49:38;;;;;;;;;;;;;;;11.35;100.00;101860.31;5047835;28;19967;-73
2022/10/06 00:52:05;;;;;;;;;;;;;;;11.33;100.00;101871.88;5046804;28;20400;-73
2022/10/06 00:54:31;;;;;;;;;;;;;;;11.33;100.00;101877.19;5047229;28;20384;-74
2022/10/06 00:56:56;;;;;;;;;;;;;;;11.32;100.00;101870.13;5062630;28;19943;-74
2022/10/06 00:59:22;;;;;;;;;;;;;;;11.32;100.00;101881.59;5046851;28;19959;-74
2022/10/06 01:01:53;;;;;;;;;;;;;;;11.31;100.00;101889.59;5046648;28;19930;-73
2022/10/06 01:04:18;;;;;;;;;;;;;;;11.27;100.00;101900.31;5047074;28;19925;-74
2022/10/06 01:06:46;;;;;;;;;;;;;;;11.24;100.00;101892.44;5045788;28;19924;-74
2022/10/06 01:09:12;;;;;;;;;;;;;;;11.24;100.00;101900.38;5047300;28;19951;-73
2022/10/06 01:11:37;;;;;;;;;;;;;;;11.25;100.00;101901.25;5045024;28;19926;-73
2022/10/06 01:14:03;;;;;;;;;;;;;;;11.24;100.00;101900.38;5045865;28;19928;-73
2022/10/06 01:16:28;;;;;;;;;;;;;;;11.24;100.00;101904.84;5042590;28;19924;-74
2022/10/06 01:18:54;;;;;;;;;;;;;;;11.22;100.00;101918.13;5062195;28;19998;-73
2022/10/06 01:21:38;;;;;;;;;;;;;;;11.22;100.00;101912.81;5022968;28;19925;-74
2022/10/06 01:24:03;;;;;;;;;;;;;;;11.21;100.00;101916.41;5044634;28;19964;-73
2022/10/06 01:26:29;;;;;;;;;;;;;;;11.19;100.00;101925.31;5045670;28;20368;-74
2022/10/06 01:28:55;;;;;;;;;;;;;;;11.18;100.00;101932.41;5046381;28;19928;-73
2022/10/06 01:31:20;;;;;;;;;;;;;;;11.17;100.00;101946.56;5044175;28;19935;-74
2022/10/06 01:33:49;;;;;;;;;;;;;;;11.13;100.00;101944.94;5045583;28;19958;-74
2022/10/06 01:36:15;;;;;;;;;;;;;;;11.12;100.00;101943.19;5047135;28;20405;-73
2022/10/06 01:38:40;;;;;;;;;;;;;;;11.07;100.00;101945.97;5047430;28;19933;-73
2022/10/06 01:41:05;;;;;;;;;;;;;;;11.03;100.00;101938.16;5046301;28;19940;-73
2022/10/06 01:43:31;;;;;;;;;;;;;;;11.04;100.00;101950.47;5046960;28;19978;-73
2022/10/06 01:45:56;;;;;;;;;;;;;;;11.05;100.00;101946.94;5042047;28;19928;-73
2022/10/06 01:48:22;;;;;;;;;;;;;;;11.05;100.00;101944.28;5044907;28;19937;-73
2022/10/06 01:50:47;;;;;;;;;;;;;;;11.05;100.00;101958.41;5044853;28;19933;-74
2022/10/06 01:53:13;;;;;;;;;;;;;;;11.03;100.00;101954.94;5041809;28;19935;-73
2022/10/06 01:55:38;;;;;;;;;;;;;;;11.04;100.00;101966.38;5046269;28;19933;-73
2022/10/06 01:58:03;;;;;;;;;;;;;;;11.04;100.00;101987.59;5046563;28;20457;-73
2022/10/06 02:00:29;;;;;;;;;;;;;;;11.04;100.00;101990.22;5045173;28;19968;-73
2022/10/06 02:02:54;;;;;;;;;;;;;;;11.05;100.00;101989.34;5048233;28;19933;-74
2022/10/06 02:05:20;;;;;;;;;;;;;;;11.05;100.00;101994.66;5050162;28;19928;-73
2022/10/06 02:07:45;;;;;;;;;;;;;;;11.06;100.00;102001.69;5049927;28;19956;-74
2022/10/06 02:10:10;;;;;;;;;;;;;;;11.06;100.00;102009.63;5050639;28;20387;-74
2022/10/06 02:12:36;;;;;;;;;;;;;;;11.05;100.00;102007.91;5050732;28;19974;-73
2022/10/06 02:15:02;;;;;;;;;;;;;;;11.06;100.00;102006.97;5049746;28;19933;-74
2022/10/06 02:17:28;;;;;;;;;;;;;;;11.08;100.00;102010.44;5049044;28;20529;-73
2022/10/06 02:19:53;;;;;;;;;;;;;;;11.08;100.00;102016.63;5049123;28;19967;-73
2022/10/06 02:22:18;;;;;;;;;;;;;;;11.09;100.00;102018.34;5051041;28;20015;-74
2022/10/06 02:24:44;;;;;;;;;;;;;;;11.09;100.00;102015.72;5050739;28;20295;-73
2022/10/06 02:27:09;;;;;;;;;;;;;;;11.10;100.00;102029.81;5051197;28;19935;-73
2022/10/06 02:29:35;;;;;;;;;;;;;;;11.08;100.00;102042.25;5048612;28;20303;-74
2022/10/06 02:32:00;;;;;;;;;;;;;;;11.08;100.00;102039.59;5047301;28;20023;-73
2022/10/06 02:34:25;;;;;;;;;;;;;;;11.06;100.00;102044.09;5049676;28;19974;-74
2022/10/06 02:36:51;;;;;;;;;;;;;;;11.06;100.00;102052.03;5049977;28;20015;-73
2022/10/06 02:39:16;;;;;;;;;;;;;;;11.06;100.00;102058.19;5050483;28;19928;-73
2022/10/06 02:41:42;;;;;;;;;;;;;;;11.06;100.00;102066.13;5049295;28;19939;-73
2022/10/06 02:44:07;;;;;;;;;;;;;;;11.08;100.00;102068.75;5046616;28;20057;-74
2022/10/06 02:46:32;;;;;;;;;;;;;;;11.09;100.00;102068.72;5044977;28;19932;-73
2022/10/06 02:48:58;;;;;;;;;;;;;;;11.08;100.00;102079.34;5050394;28;20028;-74
2022/10/06 02:51:23;;;;;;;;;;;;;;;11.10;100.00;102082.81;5047123;28;19940;-73
2022/10/06 02:53:49;;;;;;;;;;;;;;;11.07;100.00;102081.13;5045842;28;19971;-73
2022/10/06 02:56:15;;;;;;;;;;;;;;;11.07;100.00;102088.22;5048170;28;19986;-73
2022/10/06 02:58:44;;;;;;;;;;;;;;;11.07;100.00;102098.81;5048356;28;20322;-73
2022/10/06 03:01:16;;;;;;;;;;;;;;;11.05;100.00;102096.19;5064513;28;20311;-73
2022/10/06 03:03:41;;;;;;;;;;;;;;;11.02;100.00;102095.41;5049730;28;19929;-74
2022/10/06 03:06:20;;;;;;;;;;;;;;;10.99;100.00;102096.38;5065242;28;19939;-73
2022/10/06 03:08:52;;;;;;;;;;;;;;;10.97;100.00;102109.69;5049244;28;21378;-74
2022/10/06 03:11:18;;;;;;;;;;;;;;;10.94;100.00;102098.25;5046855;28;20292;-73
2022/10/06 03:13:45;;;;;;;;;;;;;;;10.91;100.00;102109.84;5047767;28;19932;-74
2022/10/06 03:16:18;;;;;;;;;;;;;;;10.89;100.00;102111.63;5048385;28;20421;-73
2022/10/06 03:18:48;;;;;;;;;;;;;;;10.86;100.00;102119.69;5047427;28;19924;-73
2022/10/06 03:21:14;;;;;;;;;;;;;;;10.83;100.00;102123.28;5046078;28;20020;-73
2022/10/06 03:23:39;;;;;;;;;;;;;;;10.83;100.00;102128.56;5065038;28;20395;-73
2022/10/06 03:26:05;;;;;;;;;;;;;;;10.83;100.00;102133.88;5048291;28;19939;-73
2022/10/06 03:28:31;;;;;;;;;;;;;;;10.82;100.00;102140.09;5047540;28;20413;-73
2022/10/06 03:31:03;;;;;;;;;;;;;;;10.84;100.00;102143.56;5048236;28;20015;-73
2022/10/06 03:33:28;;;;;;;;;;;;;;;10.84;100.00;102146.22;5029976;28;19999;-73
2022/10/06 03:36:01;;;;;;;;;;;;;;;10.83;100.00;102151.53;5049068;28;19925;-74
2022/10/06 03:38:26;;;;;;;;;;;;;;;10.82;100.00;102155.09;5065842;28;19924;-73
2022/10/06 03:40:52;;;;;;;;;;;;;;;10.86;100.00;102156.78;5046987;28;21139;-73
2022/10/06 03:43:17;;;;;;;;;;;;;;;10.89;100.00;102156.69;5048558;28;19929;-74
2022/10/06 03:45:42;;;;;;;;;;;;;;;10.92;100.00;102163.69;5047875;28;21217;-73
2022/10/06 03:48:08;;;;;;;;;;;;;;;10.91;100.00;102160.19;5048679;28;20303;-73
2022/10/06 03:50:33;;;;;;;;;;;;;;;10.90;100.00;102166.38;5047760;28;19978;-73
2022/10/06 03:52:58;;;;;;;;;;;;;;;10.92;100.00;102168.97;5048252;28;19928;-73
2022/10/06 03:55:24;;;;;;;;;;;;;;;10.92;100.00;102174.28;5049087;28;20299;-73
2022/10/06 03:57:49;;;;;;;;;;;;;;;10.91;100.00;102180.50;5048614;28;19998;-73
2022/10/06 04:00:14;;;;;;;;;;;;;;;10.89;100.00;102191.13;5047599;28;20306;-73
2022/10/06 04:02:40;;;;;;;;;;;;;;;10.86;100.00;102191.22;5046746;28;19932;-74
2022/10/06 04:05:05;;;;;;;;;;;;;;;10.82;100.00;102193.06;5047511;28;20023;-73
2022/10/06 04:07:31;;;;;;;;;;;;;;;10.80;100.00;102199.31;5048432;28;20384;-74
2022/10/06 04:09:56;;;;;;;;;;;;;;;10.83;100.00;102209.81;5046171;28;19968;-73
2022/10/06 04:12:22;;;;;;;;;;;;;;;10.87;100.00;102214.16;5079960;28;19936;-74
2022/10/06 04:14:47;;;;;;;;;;;;;;;10.89;100.00;102214.13;5081170;28;20373;-74
2022/10/06 04:17:12;;;;;;;;;;;;;;;10.90;100.00;102202.59;5048462;28;19936;-73
2022/10/06 04:19:38;;;;;;;;;;;;;;;10.91;100.00;102210.53;5046218;28;20372;-73
2022/10/06 04:22:03;;;;;;;;;;;;;;;10.94;100.00;102222.81;5047021;28;20302;-73
2022/10/06 04:24:28;;;;;;;;;;;;;;;10.95;100.00;102216.63;5045904;28;19924;-73
2022/10/06 04:27:26;;;;;;;;;;;;;;;10.97;100.00;102223.63;5048639;28;20018;-73
2022/10/06 04:29:39;;;;;;;;;;;;;;;10.98;100.00;102240.38;5048362;28;19924;-73
2022/10/06 04:32:05;;;;;;;;;;;;;;;10.98;100.00;102232.44;5045982;28;19966;-74
2022/10/06 04:34:30;;;;;;;;;;;;;;;10.96;100.00;102240.41;5046298;28;19939;-73
2022/10/06 04:36:55;;;;;;;;;;;;;;;10.95;100.00;102249.25;5046228;28;19928;-74
2022/10/06 04:39:21;;;;;;;;;;;;;;;10.91;100.00;102250.28;5048697;28;19933;-73
2022/10/06 04:41:46;;;;;;;;;;;;;;;10.87;100.00;102253.88;5045764;28;20019;-73
2022/10/06 04:44:14;;;;;;;;;;;;;;;10.83;100.00;102253.09;5044206;28;20587;-73
2022/10/06 04:46:40;;;;;;;;;;;;;;;10.80;100.00;102254.94;5048392;28;19929;-73
2022/10/06 04:49:05;;;;;;;;;;;;;;;10.76;100.00;102263.88;5047149;28;20406;-73
2022/10/06 04:51:30;;;;;;;;;;;;;;;10.71;100.00;102261.31;5046257;28;19932;-74
2022/10/06 04:53:56;;;;;;;;;;;;;;;10.69;100.00;102274.59;5046317;28;19925;-74
2022/10/06 04:56:25;;;;;;;;;;;;;;;10.67;100.00;102280.88;5047166;28;20321;-74
2022/10/06 04:58:52;;;;;;;;;;;;;;;10.68;100.00;102287.91;5046528;28;19932;-74
2022/10/06 05:01:24;;;;;;;;;;;;;;;10.68;100.00;102286.09;5045690;28;20836;-73
2022/10/06 05:03:50;;;;;;;;;;;;;;;10.69;100.00;102297.59;5045188;28;19978;-74
2022/10/06 05:06:23;;;;;;;;;;;;;;;10.68;100.00;102303.78;5045306;28;20796;-74
2022/10/06 05:08:49;;;;;;;;;;;;;;;10.68;100.00;102306.44;5045794;28;19935;-74
2022/10/06 05:11:15;;;;;;;;;;;;;;;10.67;100.00;102310.00;5048488;28;20464;-73
2022/10/06 05:13:40;;;;;;;;;;;;;;;10.67;100.00;102312.66;5047401;28;19939;-74
2022/10/06 05:16:06;;;;;;;;;;;;;;;10.67;100.00;102313.50;5046309;28;19975;-74
2022/10/06 05:18:32;;;;;;;;;;;;;;;10.68;100.00;102317.03;5045178;28;20190;-74
2022/10/06 05:21:17;;;;;;;;;;;;;;;10.67;100.00;102317.94;5044389;28;19924;-74
2022/10/06 05:23:43;;;;;;;;;;;;;;;10.67;100.00;102313.50;5046550;28;19931;-74
2022/10/06 05:26:14;;;;;;;;;;;;;;;10.69;100.00;102324.06;5044676;28;20295;-74
2022/10/06 05:28:39;;;;;;;;;;;;;;;10.70;100.00;102332.00;5044637;28;20053;-74
2022/10/06 05:31:10;;;;;;;;;;;;;;;10.71;100.00;102336.38;5044288;28;20000;-74
2022/10/06 05:33:36;;;;;;;;;;;;;;;10.72;100.00;102342.53;5045981;28;19950;-73
2022/10/06 05:36:03;;;;;;;;;;;;;;;10.71;100.00;102343.44;5047459;28;19944;-74
2022/10/06 05:38:29;;;;;;;;;;;;;;;10.73;100.00;102339.84;5050494;28;19925;-73
2022/10/06 05:41:01;;;;;;;;;;;;;;;10.76;100.00;102344.22;5048975;28;20014;-73
2022/10/06 05:43:26;;;;;;;;;;;;;;;10.78;100.00;102346.84;5049892;28;19929;-73
2022/10/06 05:45:53;;;;;;;;;;;;;;;10.81;100.00;102352.06;5081229;28;19929;-73
2022/10/06 05:48:18;;;;;;;;;;;;;;;10.81;100.00;102357.34;5050558;28;19933;-74
2022/10/06 05:50:44;;;;;;;;;;;;;;;10.79;100.00;102364.47;5051211;28;19982;-73
2022/10/06 05:53:09;;;;;;;;;;;;;;;10.79;100.00;102370.63;5052044;28;19963;-73
2022/10/06 05:55:37;;;;;;;;;;;;;;;10.79;100.00;102369.78;5049509;28;19929;-74
2022/10/06 05:58:03;;;;;;;;;;;;;;;10.79;100.00;102375.06;5052235;28;19936;-74
2022/10/06 06:00:29;;;;;;;;;;;;;;;10.81;100.00;102378.56;5051146;28;19928;-74
2022/10/06 06:02:54;;;;;;;;;;;;;;;10.82;100.00;102381.16;5051281;28;19932;-74
2022/10/06 06:05:20;;;;;;;;;;;;;;;10.85;100.00;102385.53;5049727;28;19929;-74
2022/10/06 06:07:45;;;;;;;;;;;;;;;10.86;100.00;102393.44;5051554;28;19931;-74
2022/10/06 06:10:10;;;;;;;;;;;;;;;10.88;100.00;102404.00;5033100;28;20031;-74
2022/10/06 06:12:39;;;;;;;;;;;;;;;10.88;100.00;102398.69;5050215;28;19935;-73
2022/10/06 06:17:49;;;;;;;;;;;;;;;10.90;100.00;102410.13;5049586;28;19929;-73
2022/10/06 06:20:14;;;;;;;;;;;;;;;10.87;100.00;102415.50;5050150;28;19990;-73
2022/10/06 06:22:39;;;;;;;;;;;;;;;10.83;100.00;102422.66;5049173;28;20532;-74
2022/10/06 06:25:05;;;;;;;;;;;;;;;10.78;100.00;102428.97;5047988;28;19929;-74
2022/10/06 06:27:31;;;;;;;;;;;;;;;10.72;100.00;102427.28;5050193;28;20540;-74
2022/10/06 06:29:57;;;;;;;;;;;;;;;10.68;100.00;102431.78;5049839;28;20414;-74
2022/10/06 06:32:22;;;;;;;;;;;;;;;10.65;100.00;102442.47;5050739;28;19981;-73
2022/10/06 06:34:48;;;;;;;;;;;;;;;10.63;100.00;102438.97;5048615;28;19940;-74
2022/10/06 06:37:14;;;;;;;;;;;;;;;10.61;100.00;102442.56;5049424;28;19955;-74
2022/10/06 06:39:39;;;;;;;;;;;;;;;10.62;100.00;102453.09;5050152;28;20424;-74
2022/10/06 06:42:07;;;;;;;;;;;;;;;10.62;100.00;102446.94;5048241;28;20392;-74
2022/10/06 06:44:33;;;;;;;;;;;;;;;10.64;100.00;102450.44;5050142;28;20469;-74
2022/10/06 06:47:00;;;;;;;;;;;;;;;10.67;100.00;102453.88;5048467;28;19981;-73
2022/10/06 06:49:25;;;;;;;;;;;;;;;10.70;100.00;102455.59;5047588;28;19932;-73
2022/10/06 06:51:51;;;;;;;;;;;;;;;10.70;100.00;102461.78;5051560;28;20036;-75
2022/10/06 06:54:17;;;;;;;;;;;;;;;10.72;100.00;102465.25;5050095;28;20390;-72
2022/10/06 06:56:44;;;;;;;;;;;;;;;10.73;100.00;102463.47;5048693;28;19920;-72
2022/10/06 06:59:10;;;;;;;;;;;;;;;10.76;100.00;102470.50;5049727;28;19929;-72
2022/10/06 07:01:36;;;;;;;;;;;;;;;10.79;100.00;102470.44;5046192;28;20070;-72
2022/10/06 07:04:02;;;;;;;;;;;;;;;10.84;100.00;102480.03;5049081;28;20057;-72
2022/10/06 07:06:28;;;;;;;;;;;;;;;10.90;100.00;102479.03;5048156;28;19991;-72
2022/10/06 07:08:53;;;;;;;;;;;;;;;10.94;100.00;102488.66;5063688;28;20074;-71
2022/10/06 07:11:21;;;;;;;;;;;;;;;10.99;100.00;102489.44;5047414;28;20498;-72
2022/10/06 07:13:50;;;;;;;;;;;;;;;11.06;100.00;102491.97;5049535;28;20369;-72
2022/10/06 07:27:23;;;;;;;;;;;;;;;11.24;100.00;102525.16;5049315;28;19928;-71
2022/10/06 07:29:52;;;;;;;;;;;;;;;11.30;100.00;102532.09;5047059;28;19928;-72
2022/10/06 07:32:19;;;;;;;;;;;;;;;11.34;100.00;102537.31;5046996;28;19935;-72
2022/10/06 07:34:45;;;;;;;;;;;;;;;11.39;100.00;102535.44;5048139;28;20635;-72
2022/10/06 07:37:11;;;;;;;;;;;;;;;11.44;100.00;102545.94;5050604;28;19932;-72
2022/10/06 07:39:36;;;;;;;;;;;;;;;11.48;100.00;102546.72;5049593;28;19960;-72
2022/10/06 07:42:05;;;;;;;;;;;;;;;11.52;100.00;102546.66;5050666;28;19933;-72
2022/10/06 07:44:30;;;;;;;;;;;;;;;11.57;100.00;102551.84;5049133;28;20338;-71
2022/10/06 07:46:56;;;;;;;;;;;;;;;11.64;100.00;102564.06;5048026;28;19932;-71
2022/10/06 07:49:21;;;;;;;;;;;;;;;11.72;100.00;102563.03;5047730;28;19932;-72
2022/10/06 07:51:46;;;;;;;;;;;;;;;11.79;100.00;102568.16;5049466;28;19954;-73
2022/10/06 07:54:12;;;;;;;;;;;;;;;11.86;100.00;102575.94;5048082;28;19933;-73
2022/10/06 07:56:37;;;;;;;;;;;;;;;11.92;100.00;102586.44;5050415;28;19936;-73
2022/10/06 07:59:03;;;;;;;;;;;;;;;11.97;100.00;102584.56;5048382;28;20419;-73
2022/10/06 08:01:29;;;;;;;;;;;;;;;12.04;100.00;102601.25;5045818;28;19932;-73
2022/10/06 08:03:54;;;;;;;;;;;;;;;12.11;100.00;102596.66;5045310;28;19983;-72
2022/10/06 08:06:22;;;;;;;;;;;;;;;12.17;100.00;102596.50;5048777;28;20051;-72
2022/10/06 08:08:48;;;;;;;;;;;;;;;12.24;100.00;102602.56;5049670;28;19929;-72
2022/10/06 08:11:14;;;;;;;;;;;;;;;12.29;100.00;102600.63;5047804;28;19974;-72
2022/10/06 08:13:41;;;;;;;;;;;;;;;12.35;100.00;102601.38;5047747;28;19929;-72
2022/10/06 08:16:07;;;;;;;;;;;;;;;12.41;100.00;102604.78;5046956;28;19924;-73
2022/10/06 08:18:32;;;;;;;;;;;;;;;12.46;100.00;102603.75;5047471;28;19929;-71
2022/10/06 08:20:57;;;;;;;;;;;;;;;12.52;100.00;102604.53;5044460;28;20395;-71
2022/10/06 08:23:23;;;;;;;;;;;;;;;12.59;100.00;102617.59;5044987;28;20399;-71
2022/10/06 08:25:52;;;;;;;;;;;;;;;12.66;100.00;102626.28;5045436;28;20209;-71
2022/10/06 08:28:17;;;;;;;;;;;;;;;12.72;100.00;102615.50;5043987;28;20006;-71
2022/10/06 08:30:43;;;;;;;;;;;;;;;12.77;100.00;102615.38;5043102;28;20762;-72
2022/10/06 08:33:08;;;;;;;;;;;;;;;12.81;100.00;102618.81;5043731;28;19929;-71
2022/10/06 08:35:34;;;;;;;;;;;;;;;12.86;100.00;102619.56;5042939;28;19982;-72
2022/10/06 08:38:00;;;;;;;;;;;;;;;12.89;100.00;102616.81;5045381;28;19929;-72
2022/10/06 08:40:26;;;;;;;;;;;;;;;12.93;100.00;102607.88;5059826;28;19978;-72
2022/10/06 08:42:52;;;;;;;;;;;;;;;12.96;100.00;102618.41;5043900;28;20007;-72
2022/10/06 08:45:34;;;;;;;;;;;;;;;12.99;100.00;102638.72;5043928;28;19975;-71
2022/10/06 08:48:04;;;;;;;;;;;;;;;13.02;100.00;102638.66;5040575;28;19935;-71
2022/10/06 08:50:34;;;;;;;;;;;;;;;13.03;100.00;102632.41;5043128;28;20380;-70
2022/10/06 08:53:03;;;;;;;;;;;;;;;13.07;100.00;102634.06;5043730;28;19965;-71
2022/10/06 08:55:29;;;;;;;;;;;;;;;13.07;100.00;102639.38;5045219;28;19925;-71
2022/10/06 08:57:54;;;;;;;;;;;;;;;13.10;100.00;102639.31;5075556;28;19955;-71
2022/10/06 09:00:20;;;;;;;;;;;;;;;13.13;100.00;102651.66;5044312;28;20063;-70
2022/10/06 09:02:46;;;;;;;;;;;;;;;13.14;100.00;102650.72;5041532;28;20572;-71
2022/10/06 09:05:13;;;;;;;;;;;;;;;13.17;100.00;102650.63;5042513;28;20556;-71
2022/10/06 09:07:58;;;;;;;;;;;;;;;13.25;100.00;102647.78;5043243;28;20362;-71
2022/10/06 09:10:42;;;;;;;;;;;;;;;13.27;100.00;102657.44;5044946;28;19971;-70
2022/10/06 09:13:07;;;;;;;;;;;;;;;13.29;100.00;102660.94;5060862;28;19928;-70
2022/10/06 09:15:36;;;;;;;;;;;;;;;13.33;100.00;102653.75;5041261;28;20424;-71
2022/10/06 09:18:19;;;;;;;;;;;;;;;13.38;100.00;102665.13;5043659;28;20058;-71
2022/10/06 09:21:04;;;;;;;;;;;;;;;13.39;100.00;102664.22;5028073;28;19969;-71
2022/10/06 09:23:46;;;;;;;;;;;;;;;13.43;99.04;102678.28;5043469;28;20584;-71
2022/10/06 09:26:12;;;;;;;;;;;;;;;13.44;98.07;102688.91;5042520;28;20019;-71
2022/10/06 09:28:37;;;;;;;;;;;;;;;13.44;99.65;102688.00;5040787;28;19929;-72
2022/10/06 09:31:04;;;;;;;;;;;;;;;13.43;100.00;102676.53;5043320;28;20033;-71
2022/10/06 09:33:32;;;;;;;;;;;;;;;13.44;99.01;102680.03;5044618;28;19929;-73
2022/10/06 09:36:07;;;;;;;;;;;;;;;13.48;99.39;102689.72;5041317;28;21265;-71
2022/10/06 09:38:52;;;;;;;;;;;;;;;13.48;97.92;102683.50;5075761;28;20384;-70
2022/10/06 09:41:27;;;;;;;;;;;;;;;13.51;97.27;102692.28;5043169;28;19917;-71
2022/10/06 09:43:57;;;;;;;;;;;;;;;13.57;97.14;102694.75;5043712;28;20023;-72
2022/10/06 09:46:26;;;;;;;;;;;;;;;13.61;95.48;102694.69;5042308;28;19928;-71
2022/10/06 09:49:10;;;;;;;;;;;;;;;13.65;94.96;102699.00;5041611;28;19936;-70
2022/10/06 09:51:36;;;;;;;;;;;;;;;13.70;93.01;102707.72;5043546;28;20035;-70
2022/10/06 09:54:15;;;;;;;;;;;;;;;13.69;91.79;102703.31;5034758;28;20311;-70
2022/10/06 09:56:40;;;;;;;;;;;;;;;13.67;92.57;102705.16;5042898;28;19928;-70
2022/10/06 09:59:13;;;;;;;;;;;;;;;13.67;93.75;102706.00;5043582;28;19928;-70
2022/10/06 10:01:39;;;;;;;;;;;;;;;13.75;94.21;102691.63;5041146;28;19929;-71
2022/10/06 10:04:06;;;;;;;;;;;;;;;13.77;91.15;102705.78;5044403;28;22047;-70
2022/10/06 10:06:33;;;;;;;;;;;;;;;13.76;89.55;102698.69;5047083;28;20333;-69
2022/10/06 10:09:18;;;;;;;;;;;;;;;13.77;90.80;102711.09;5044674;28;20365;-70
2022/10/06 10:14:29;;;;;;;;;;;;;;;13.81;86.22;102724.25;5043732;28;19960;-70
2022/10/06 10:16:54;;;;;;;;;;;;;;;13.84;87.14;102715.31;5044102;28;20011;-70
2022/10/06 10:19:21;;;;;;;;;;;;;;;13.85;87.95;102722.38;5046826;28;20548;-70
2022/10/06 10:21:46;;;;;;;;;;;;;;;13.87;89.90;102720.53;5045487;28;19933;-71
2022/10/06 10:24:14;;;;;;;;;;;;;;;13.91;85.71;102723.97;5048440;28;20700;-70
2022/10/06 10:26:45;;;;;;;;;;;;;;;13.96;87.20;102730.91;5049669;28;20006;-70
2022/10/06 10:29:17;;;;;;;;;;;;;;;13.98;86.73;102738.84;5047238;28;19960;-70
2022/10/06 10:31:57;;;;;;;;;;;;;;;14.01;81.69;102737.91;5049819;28;19928;-71
2022/10/06 10:34:23;;;;;;;;;;;;;;;14.04;83.27;102737.78;5049918;28;19967;-71
2022/10/06 10:36:50;;;;;;;;;;;;;;;14.06;86.98;102733.31;5048989;28;19932;-71
2022/10/06 10:39:35;;;;;;;;;;;;;;;14.06;84.09;102738.63;5049187;28;19951;-71
2022/10/06 10:42:02;;;;;;;;;;;;;;;14.06;84.96;102736.81;5050169;28;19928;-71
2022/10/06 10:44:33;;;;;;;;;;;;;;;14.05;83.55;102737.75;5031560;28;19924;-70
2022/10/06 10:47:37;;;;;;;;;;;;;;;14.09;86.05;102731.41;5048624;28;19930;-71
2022/10/06 10:50:09;;;;;;;;;;;;;;;14.14;85.53;102736.59;5008560;28;20292;-72
2022/10/06 10:52:35;;;;;;;;;;;;;;;14.17;85.95;102743.63;4993323;28;20705;-71
2022/10/06 10:55:03;;;;;;;;;;;;;;;14.15;83.22;102746.34;5034116;28;20054;-69
2022/10/06 10:57:34;;;;;;;;;;;;;;;14.15;83.62;102743.66;5048711;28;20015;-72
2022/10/06 11:00:02;;;;;;;;;;;;;;;14.18;86.56;102748.03;5048322;28;19932;-69
2022/10/06 11:02:28;;;;;;;;;;;;;;;14.20;83.52;102755.06;5049615;28;19920;-69
2022/10/06 11:05:00;;;;;;;;;;;;;;;14.24;84.67;102754.06;5049172;28;19986;-69
2022/10/06 11:07:30;;;;;;;;;;;;;;;14.27;84.55;102753.06;5049645;28;19935;-69
2022/10/06 11:10:04;;;;;;;;;;;;;;;14.28;81.70;102762.84;5047475;28;20311;-69
2022/10/06 11:12:37;;;;;;;;;;;;;;;14.33;82.96;102757.34;5046442;28;20026;-69
2022/10/06 11:15:04;;;;;;;;;;;;;;;14.33;80.93;102762.69;5047947;28;20070;-69
2022/10/06 11:17:39;;;;;;;;;;;;;;;14.31;81.00;102754.72;5048185;28;20045;-69
2022/10/06 11:20:08;;;;;;;;;;;;;;;14.31;82.49;102748.53;5048307;28;19932;-69
2022/10/06 11:22:42;;;;;;;;;;;;;;;14.29;81.61;102756.59;5046407;28;19937;-70
2022/10/06 11:25:20;;;;;;;;;;;;;;;14.29;82.00;102751.25;5045737;28;20859;-69
2022/10/06 11:27:49;;;;;;;;;;;;;;;14.30;81.35;102758.31;5054781;28;20009;-69
2022/10/06 11:30:17;;;;;;;;;;;;;;;14.33;81.39;102763.53;5045419;28;20417;-72
2022/10/06 11:32:45;;;;;;;;;;;;;;;14.37;81.42;102773.19;5047171;28;19929;-69
2022/10/06 11:35:15;;;;;;;;;;;;;;;14.38;80.79;102777.59;5049384;28;19932;-72
2022/10/06 11:37:59;;;;;;;;;;;;;;;14.39;81.60;102767.81;5045807;28;20015;-70
2022/10/06 11:40:44;;;;;;;;;;;;;;;14.37;79.91;102777.63;5045695;28;19928;-70
2022/10/06 11:43:25;;;;;;;;;;;;;;;14.36;78.84;102770.56;5047644;28;19947;-72
2022/10/06 11:46:09;;;;;;;;;;;;;;;14.32;76.52;102775.13;5045553;28;20109;-73
2022/10/06 11:48:34;;;;;;;;;;;;;;;14.35;80.94;102771.50;5048037;28;20506;-72
2022/10/06 11:51:16;;;;;;;;;;;;;;;14.37;81.78;102770.53;5048821;28;19936;-73
2022/10/06 11:53:41;;;;;;;;;;;;;;;14.45;83.42;102772.09;5048718;28;19984;-72
2022/10/06 11:56:16;;;;;;;;;;;;;;;14.51;82.92;102764.75;5049045;28;20019;-72
2022/10/06 11:59:08;;;;;;;;;;;;;;;14.53;82.06;102757.59;5049440;28;20016;-72
2022/10/06 12:01:33;;;;;;;;;;;;;;;14.58;82.55;102762.78;5039609;28;20485;-72
2022/10/06 12:04:02;;;;;;;;;;;;;;;14.59;80.05;102766.34;5047416;28;19936;-72
2022/10/06 12:06:43;;;;;;;;;;;;;;;14.62;81.89;102769.78;5046325;28;19932;-72
2022/10/06 12:09:32;;;;;;;;;;;;;;;14.62;80.73;102775.09;5049610;28;19935;-72
2022/10/06 12:12:02;;;;;;;;;;;;;;;14.66;82.96;102771.41;5047280;28;20366;-72
2022/10/06 12:14:29;;;;;;;;;;;;;;;14.69;79.66;102772.22;5048076;28;19932;-72
2022/10/06 12:16:55;;;;;;;;;;;;;;;14.68;75.78;102768.69;5047377;28;19932;-72
2022/10/06 12:19:25;;;;;;;;;;;;;;;14.66;76.60;102773.22;5063306;28;19928;-72
2022/10/06 12:21:56;;;;;;;;;;;;;;;14.71;81.93;102771.25;5047051;28;20406;-71
2022/10/06 12:24:42;;;;;;;;;;;;;;;14.78;83.54;102770.16;5047484;28;20023;-73
2022/10/06 12:27:27;;;;;;;;;;;;;;;14.83;77.64;102769.13;5046423;28;20445;-71
2022/10/06 12:30:11;;;;;;;;;;;;;;;14.85;79.54;102775.28;5046053;28;19928;-71
2022/10/06 12:32:46;;;;;;;;;;;;;;;14.88;79.72;102769.88;5046411;28;20295;-70
2022/10/06 12:35:17;;;;;;;;;;;;;;;14.91;77.89;102775.09;5047172;28;19998;-71
2022/10/06 12:37:44;;;;;;;;;;;;;;;14.92;79.79;102771.50;5047485;28;19951;-70
2022/10/06 12:40:28;;;;;;;;;;;;;;;14.91;80.02;102780.41;5046409;28;19928;-70
2022/10/06 12:43:09;;;;;;;;;;;;;;;14.92;77.10;102783.03;5054627;28;20023;-70
2022/10/06 12:45:35;;;;;;;;;;;;;;;14.95;80.71;102766.06;5047211;28;19929;-70
2022/10/06 12:48:00;;;;;;;;;;;;;;;14.99;80.54;102770.34;5046063;28;20379;-70
2022/10/06 12:50:26;;;;;;;;;;;;;;;15.02;79.03;102778.28;5044278;28;19936;-70
2022/10/06 12:52:56;;;;;;;;;;;;;;;15.02;75.73;102777.38;5044710;28;19932;-70